createdAt,value
2018-12-14T00:01:39.082Z,-0.12
2018-12-14T00:04:06.760Z,-0.14
2018-12-14T00:06:34.653Z,-0.07
2018-12-14T00:09:02.254Z,-0.03
2018-12-14T00:11:30.039Z,0.07
2018-12-14T00:13:57.616Z,0.04
2018-12-14T00:16:25.191Z,0.06
2018-12-14T00:18:52.779Z,-0.11
2018-12-14T00:21:20.372Z,-0.05
2018-12-14T00:23:47.950Z,0.02
2018-12-14T00:26:15.566Z,0.03
2018-12-14T00:28:44.024Z,-0.02
2018-12-14T00:31:11.634Z,-0.03
2018-12-14T00:33:39.727Z,-0.05
2018-12-14T00:36:07.348Z,-0.07
2018-12-14T00:38:35.135Z,-0.10
2018-12-14T00:41:02.988Z,-0.10
2018-12-14T00:43:31.186Z,-0.01
2018-12-14T00:45:58.820Z,-0.12
2018-12-14T00:48:26.936Z,-0.19
2018-12-14T00:50:54.541Z,-0.08
2018-12-14T00:53:24.818Z,-0.22
2018-12-14T00:55:52.541Z,-0.15
2018-12-14T00:58:20.694Z,-0.16
2018-12-14T01:00:48.396Z,-0.17
2018-12-14T01:03:15.968Z,-0.26
2018-12-14T01:05:43.645Z,-0.32
2018-12-14T01:08:11.353Z,-0.16
2018-12-14T01:10:39.589Z,-0.24
2018-12-14T01:13:07.246Z,-0.28
2018-12-14T01:15:34.828Z,-0.23
2018-12-14T01:18:02.412Z,-0.32
2018-12-14T01:20:30.056Z,-0.27
2018-12-14T01:22:58.568Z,-0.14
2018-12-14T01:25:26.301Z,-0.03
2018-12-14T01:27:54.276Z,-0.26
2018-12-14T01:30:21.940Z,-0.32
2018-12-14T01:32:49.525Z,-0.36
2018-12-14T01:35:17.109Z,-0.28
2018-12-14T01:37:44.713Z,-0.17
2018-12-14T01:40:14.223Z,-0.28
2018-12-14T01:42:41.839Z,-0.28
2018-12-14T01:45:09.576Z,-0.29
2018-12-14T01:47:37.156Z,-0.17
2018-12-14T01:50:05.716Z,-0.23
2018-12-14T01:52:33.645Z,-0.24
2018-12-14T01:55:01.487Z,-0.22
2018-12-14T01:57:29.505Z,-0.20
2018-12-14T01:59:57.088Z,-0.16
2018-12-14T02:02:25.094Z,-0.31
2018-12-14T02:04:52.805Z,-0.46
2018-12-14T02:07:20.988Z,-0.41
2018-12-14T02:09:48.669Z,-0.25
2018-12-14T02:12:16.294Z,-0.25
2018-12-14T02:14:43.990Z,-0.20
2018-12-14T02:17:11.567Z,-0.12
2018-12-14T02:19:39.483Z,-0.20
2018-12-14T02:22:07.372Z,-0.20
2018-12-14T02:24:36.299Z,-0.19
2018-12-14T02:27:04.782Z,-0.23
2018-12-14T02:29:32.507Z,-0.30
2018-12-14T02:32:00.123Z,-0.28
2018-12-14T02:34:27.710Z,-0.32
2018-12-14T02:36:55.341Z,-0.38
2018-12-14T02:39:22.921Z,-0.39
2018-12-14T02:41:50.741Z,-0.36
2018-12-14T02:44:18.341Z,-0.50
2018-12-14T02:46:53.693Z,-0.36
2018-12-14T02:49:21.934Z,-0.20
2018-12-14T02:51:49.500Z,-0.27
2018-12-14T02:54:17.460Z,-0.28
2018-12-14T02:56:45.003Z,-0.23
2018-12-14T02:59:12.551Z,-0.24
2018-12-14T03:01:40.112Z,-0.39
2018-12-14T03:04:07.660Z,-0.31
2018-12-14T03:06:35.216Z,-0.48
2018-12-14T03:09:02.806Z,-0.52
2018-12-14T03:11:30.523Z,-0.40
2018-12-14T03:13:58.080Z,-0.29
2018-12-14T03:16:25.962Z,-0.37
2018-12-14T03:18:53.557Z,-0.46
2018-12-14T03:21:21.304Z,-0.32
2018-12-14T03:23:48.855Z,-0.28
2018-12-14T03:26:16.406Z,-0.18
2018-12-14T03:28:44.447Z,-0.21
2018-12-14T03:31:12.074Z,-0.28
2018-12-14T03:33:39.628Z,-0.28
2018-12-14T03:36:07.172Z,-0.36
2018-12-14T03:38:34.727Z,-0.32
2018-12-14T03:41:02.280Z,-0.29
2018-12-14T03:43:30.296Z,-0.39
2018-12-14T03:45:57.845Z,-0.24
2018-12-14T03:48:25.400Z,-0.32
2018-12-14T03:50:52.943Z,-0.30
2018-12-14T03:53:20.507Z,-0.42
2018-12-14T03:55:48.197Z,-0.37
2018-12-14T03:58:15.809Z,-0.40
2018-12-14T04:00:43.474Z,-0.50
2018-12-14T04:03:11.620Z,-0.46
2018-12-14T04:05:39.544Z,-0.64
2018-12-14T04:08:08.289Z,-0.72
2018-12-14T04:10:36.265Z,-0.67
2018-12-14T04:13:05.581Z,-0.57
2018-12-14T04:15:33.543Z,-0.66
2018-12-14T04:18:01.646Z,-0.63
2018-12-14T04:20:29.196Z,-0.55
2018-12-14T04:22:56.752Z,-0.48
2018-12-14T04:25:24.712Z,-0.49
2018-12-14T04:27:53.215Z,-0.57
2018-12-14T04:30:20.797Z,-0.53
2018-12-14T04:32:48.344Z,-0.58
2018-12-14T04:35:15.898Z,-0.57
2018-12-14T04:37:43.483Z,-0.57
2018-12-14T04:40:11.138Z,-0.64
2018-12-14T04:42:40.096Z,-0.53
2018-12-14T04:45:08.019Z,-0.54
2018-12-14T04:47:35.562Z,-0.51
2018-12-14T04:50:03.218Z,-0.56
2018-12-14T04:52:30.759Z,-0.52
2018-12-14T04:54:58.313Z,-0.30
2018-12-14T04:57:26.020Z,-0.42
2018-12-14T04:59:54.693Z,-0.58
2018-12-14T05:02:23.477Z,-0.44
2018-12-14T05:04:51.033Z,-0.42
2018-12-14T05:07:18.581Z,-0.28
2018-12-14T05:09:46.254Z,-0.28
2018-12-14T05:12:13.822Z,-0.47
2018-12-14T05:14:41.477Z,-0.53
2018-12-14T05:17:09.918Z,-0.67
2018-12-14T05:19:38.648Z,-0.71
2018-12-14T05:22:06.428Z,-0.64
2018-12-14T05:24:33.972Z,-0.55
2018-12-14T05:27:01.896Z,-0.54
2018-12-14T05:29:29.497Z,-0.61
2018-12-14T05:31:57.046Z,-0.55
2018-12-14T05:34:24.595Z,-0.65
2018-12-14T05:36:53.053Z,-0.47
2018-12-14T05:39:20.736Z,-0.61
2018-12-14T05:41:48.845Z,-0.69
2018-12-14T05:44:16.383Z,-0.66
2018-12-14T05:46:43.924Z,-0.56
2018-12-14T05:49:11.470Z,-0.79
2018-12-14T05:51:39.128Z,-0.65
2018-12-14T05:54:06.686Z,-0.51
2018-12-14T05:56:35.609Z,-0.42
2018-12-14T05:59:05.935Z,-0.52
2018-12-14T06:01:33.513Z,-0.60
2018-12-14T06:04:01.069Z,-0.79
2018-12-14T06:06:28.635Z,-0.77
2018-12-14T06:08:56.181Z,-0.74
2018-12-14T06:11:24.015Z,-0.80
2018-12-14T06:13:52.243Z,-0.78
2018-12-14T06:16:20.115Z,-0.84
2018-12-14T06:18:47.653Z,-0.87
2018-12-14T06:21:15.204Z,-0.78
2018-12-14T06:23:43.040Z,-0.86
2018-12-14T06:26:11.211Z,-0.91
2018-12-14T06:28:41.294Z,-0.79
2018-12-14T06:31:09.408Z,-0.79
2018-12-14T06:33:36.952Z,-0.88
2018-12-14T06:36:04.523Z,-0.86
2018-12-14T06:38:32.080Z,-0.77
2018-12-14T06:40:59.639Z,-0.70
2018-12-14T06:43:27.203Z,-0.77
2018-12-14T06:45:57.041Z,-0.81
2018-12-14T06:48:24.649Z,-0.84
2018-12-14T06:50:52.613Z,-0.91
2018-12-14T06:53:20.167Z,-0.75
2018-12-14T06:55:47.725Z,-0.79
2018-12-14T06:58:15.272Z,-0.84
2018-12-14T07:00:42.821Z,-0.87
2018-12-14T07:03:13.297Z,-0.89
2018-12-14T07:05:42.283Z,-0.82
2018-12-14T07:08:09.844Z,-0.78
2018-12-14T07:10:37.396Z,-0.81
2018-12-14T07:13:04.958Z,-0.81
2018-12-14T07:15:32.524Z,-0.76
2018-12-14T07:18:00.081Z,-0.77
2018-12-14T07:20:27.630Z,-0.98
2018-12-14T07:22:55.177Z,-0.89
2018-12-14T07:25:22.731Z,-0.80
2018-12-14T07:27:50.292Z,-0.77
2018-12-14T07:30:17.851Z,-0.89
2018-12-14T07:32:45.391Z,-0.90
2018-12-14T07:35:13.047Z,-0.89
2018-12-14T07:37:40.601Z,-0.94
2018-12-14T07:40:08.387Z,-1.06
2018-12-14T07:42:35.933Z,-1.03
2018-12-14T07:45:05.092Z,-1.00
2018-12-14T07:47:32.655Z,-0.93
2018-12-14T07:50:00.216Z,-0.82
2018-12-14T07:52:27.760Z,-0.88
2018-12-14T07:54:55.304Z,-0.90
2018-12-14T07:57:24.077Z,-0.88
2018-12-14T07:59:51.624Z,-0.88
2018-12-14T08:02:19.183Z,-0.95
2018-12-14T08:04:46.736Z,-0.84
2018-12-14T08:07:14.316Z,-0.81
2018-12-14T08:09:41.873Z,-0.69
2018-12-14T08:12:10.252Z,-0.69
2018-12-14T08:14:37.802Z,-0.69
2018-12-14T08:17:05.341Z,-0.66
2018-12-14T08:19:32.895Z,-0.56
2018-12-14T08:22:02.012Z,-0.48
2018-12-14T08:24:29.573Z,-0.57
2018-12-14T08:26:57.116Z,-0.58
2018-12-14T08:29:24.657Z,-0.56
2018-12-14T08:31:52.204Z,-0.64
2018-12-14T08:34:19.770Z,-0.78
2018-12-14T08:36:49.087Z,-0.71
2018-12-14T08:39:17.037Z,-0.77
2018-12-14T08:41:44.594Z,-0.58
2018-12-14T08:44:12.171Z,-0.52
2018-12-14T08:46:39.728Z,-0.44
2018-12-14T08:49:07.282Z,-0.42
2018-12-14T08:51:34.839Z,-0.46
2018-12-14T08:54:02.402Z,-0.75
2018-12-14T08:56:29.959Z,-0.70
2018-12-14T08:58:57.504Z,-0.56
2018-12-14T09:01:25.051Z,-0.68
2018-12-14T09:03:52.667Z,-0.84
2018-12-14T09:06:20.221Z,-0.64
2018-12-14T09:08:47.786Z,-0.55
2018-12-14T09:11:15.336Z,-0.56
2018-12-14T09:13:47.893Z,-0.51
2018-12-14T09:16:12.489Z,-0.48
2018-12-14T09:18:40.042Z,-0.47
2018-12-14T09:21:07.600Z,-0.43
2018-12-14T09:23:35.162Z,-0.54
2018-12-14T09:26:02.817Z,-0.52
2018-12-14T09:28:30.382Z,-0.62
2018-12-14T09:30:57.943Z,-0.53
2018-12-14T09:33:25.489Z,-0.42
2018-12-14T09:35:53.155Z,-0.56
2018-12-14T09:38:20.699Z,-0.49
2018-12-14T09:40:48.257Z,-0.49
2018-12-14T09:43:15.856Z,-0.58
2018-12-14T09:45:43.421Z,-0.57
2018-12-14T09:48:10.975Z,-0.62
2018-12-14T09:50:38.530Z,-0.65
2018-12-14T09:53:06.085Z,-0.67
2018-12-14T09:55:33.644Z,-0.77
2018-12-14T09:58:01.187Z,-0.53
2018-12-14T10:00:28.740Z,-0.56
2018-12-14T10:02:56.306Z,-0.51
2018-12-14T10:05:23.880Z,-0.41
2018-12-14T10:07:51.419Z,-0.55
2018-12-14T10:10:18.964Z,-0.40
2018-12-14T10:12:46.540Z,-0.41
2018-12-14T10:15:14.095Z,-0.32
2018-12-14T10:17:41.642Z,-0.30
2018-12-14T10:20:10.412Z,-0.25
2018-12-14T10:22:41.507Z,-0.29
2018-12-14T10:25:08.721Z,-0.01
2018-12-14T10:27:36.287Z,-0.28
2018-12-14T10:30:05.750Z,-0.26
2018-12-14T10:32:35.183Z,-0.33
2018-12-14T10:35:05.925Z,-0.34
2018-12-14T10:37:34.311Z,-0.34
2018-12-14T10:40:02.427Z,-0.27
2018-12-14T10:42:29.988Z,-0.53
2018-12-14T10:44:57.542Z,-0.31
2018-12-14T10:47:25.088Z,-0.41
2018-12-14T10:49:52.642Z,-0.48
2018-12-14T10:52:20.197Z,-0.34
2018-12-14T10:54:48.051Z,-0.38
2018-12-14T10:57:16.261Z,-0.32
2018-12-14T10:59:43.981Z,-0.37
2018-12-14T11:02:11.531Z,-0.37
2018-12-14T11:04:41.044Z,-0.30
2018-12-14T11:07:08.690Z,-0.27
2018-12-14T11:09:36.244Z,-0.13
2018-12-14T11:12:03.787Z,-0.18
2018-12-14T11:14:31.350Z,-0.09
2018-12-14T11:16:58.898Z,0.10
2018-12-14T11:19:26.445Z,0.08
2018-12-14T11:21:54.005Z,-0.07
2018-12-14T11:24:21.660Z,-0.16
2018-12-14T11:26:49.372Z,-0.27
2018-12-14T11:29:17.749Z,-0.22
2018-12-14T11:31:47.484Z,-0.20
2018-12-14T11:34:16.824Z,-0.36
2018-12-14T11:36:44.626Z,-0.40
2018-12-14T11:39:12.206Z,-0.36
2018-12-14T11:41:39.757Z,-0.38
2018-12-14T11:44:07.316Z,-0.28
2018-12-14T11:46:34.864Z,-0.25
2018-12-14T11:49:02.425Z,-0.50
2018-12-14T11:51:29.970Z,-0.44
2018-12-14T11:53:57.525Z,-0.53
2018-12-14T11:56:25.065Z,-0.49
2018-12-14T11:58:52.630Z,-0.35
2018-12-14T12:01:20.198Z,-0.38
2018-12-14T12:03:47.758Z,-0.52
2018-12-14T12:06:16.947Z,-0.68
2018-12-14T12:08:47.381Z,-0.57
2018-12-14T12:11:15.330Z,-0.52
2018-12-14T12:13:42.876Z,-0.55
2018-12-14T12:16:10.439Z,-0.44
2018-12-14T12:18:37.979Z,-0.43
2018-12-14T12:21:05.531Z,-0.48
2018-12-14T12:23:33.086Z,-0.51
2018-12-14T12:26:00.640Z,-0.43
2018-12-14T12:28:28.196Z,-0.40
2018-12-14T12:30:55.802Z,-0.49
2018-12-14T12:33:23.354Z,-0.49
2018-12-14T12:35:50.913Z,-0.64
2018-12-14T12:38:18.470Z,-0.59
2018-12-14T12:40:46.025Z,-0.59
2018-12-14T12:43:13.576Z,-0.51
2018-12-14T12:45:41.228Z,-0.40
2018-12-14T12:48:08.783Z,-0.42
2018-12-14T12:50:36.364Z,-0.55
2018-12-14T12:53:04.034Z,-0.41
2018-12-14T12:55:31.588Z,-0.56
2018-12-14T12:57:59.171Z,-0.57
2018-12-14T13:00:26.734Z,-0.58
2018-12-14T13:02:54.292Z,-0.48
2018-12-14T13:05:21.850Z,-0.56
2018-12-14T13:07:49.404Z,-0.42
2018-12-14T13:10:16.954Z,-0.49
2018-12-14T13:12:44.510Z,-0.58
2018-12-14T13:15:12.064Z,-0.46
2018-12-14T13:17:39.604Z,-0.56
2018-12-14T13:20:07.376Z,-0.48
2018-12-14T13:22:34.926Z,-0.43
2018-12-14T13:25:02.470Z,-0.44
2018-12-14T13:27:30.021Z,-0.46
2018-12-14T13:29:57.584Z,-0.40
2018-12-14T13:32:25.129Z,-0.38
2018-12-14T13:34:52.675Z,-0.30
2018-12-14T13:37:20.228Z,-0.41
2018-12-14T13:39:47.814Z,-0.58
2018-12-14T13:42:15.474Z,-0.54
2018-12-14T13:44:46.512Z,-0.58
2018-12-14T13:47:12.975Z,-0.57
2018-12-14T13:49:40.522Z,-0.68
2018-12-14T13:52:08.095Z,-0.71
2018-12-14T13:54:35.669Z,-0.67
2018-12-14T13:57:03.236Z,-0.65
2018-12-14T13:59:30.796Z,-0.55
2018-12-14T14:01:58.335Z,-0.48
2018-12-14T14:04:25.884Z,-0.65
2018-12-14T14:06:53.424Z,-0.77
2018-12-14T14:09:20.988Z,-0.84
2018-12-14T14:11:48.536Z,-0.88
2018-12-14T14:14:16.082Z,-0.81
2018-12-14T14:16:43.631Z,-0.76
2018-12-14T14:19:11.175Z,-0.74
2018-12-14T14:21:38.720Z,-0.85
2018-12-14T14:24:06.282Z,-0.83
2018-12-14T14:26:33.827Z,-0.77
2018-12-14T14:29:01.497Z,-0.51
2018-12-14T14:31:29.045Z,-0.43
2018-12-14T14:33:56.590Z,-0.49
2018-12-14T14:36:24.137Z,-0.74
2018-12-14T14:38:52.865Z,-0.66
2018-12-14T14:41:22.845Z,-0.79
2018-12-14T14:43:50.469Z,-0.77
2018-12-14T14:46:18.024Z,-0.62
2018-12-14T14:48:45.580Z,-0.68
2018-12-14T14:51:13.238Z,-0.75
2018-12-14T14:53:40.788Z,-0.86
2018-12-14T14:56:08.333Z,-0.77
2018-12-14T14:58:36.775Z,-0.86
2018-12-14T15:01:25.812Z,-0.83
2018-12-14T15:04:04.322Z,-0.81
2018-12-14T15:06:31.882Z,-0.91
2018-12-14T15:08:59.780Z,-0.92
2018-12-14T15:11:27.338Z,-0.77
2018-12-14T15:13:55.286Z,-0.84
2018-12-14T15:16:22.828Z,-0.84
2018-12-14T15:18:50.375Z,-0.82
2018-12-14T15:21:17.943Z,-0.66
2018-12-14T15:23:45.503Z,-0.74
2018-12-14T15:26:13.179Z,-0.69
2018-12-14T15:28:41.800Z,-0.46
2018-12-14T15:31:11.602Z,-0.65
2018-12-14T15:33:39.148Z,-0.65
2018-12-14T15:36:06.699Z,-0.73
2018-12-14T15:38:34.586Z,-0.60
2018-12-14T15:41:02.139Z,-0.53
2018-12-14T15:43:31.291Z,-0.47
2018-12-14T15:45:58.987Z,-0.43
2018-12-14T15:48:26.544Z,-0.46
2018-12-14T15:50:54.102Z,-0.55
2018-12-14T15:53:21.668Z,-0.42
2018-12-14T15:55:49.240Z,-0.38
2018-12-14T15:58:16.806Z,-0.50
2018-12-14T16:00:44.612Z,-0.55
2018-12-14T16:03:12.307Z,-0.65
2018-12-14T16:05:40.232Z,-0.68
2018-12-14T16:08:10.251Z,-0.55
2018-12-14T16:10:38.117Z,-0.56
2018-12-14T16:13:06.563Z,-0.48
2018-12-14T16:15:37.673Z,-0.67
2018-12-14T16:18:05.542Z,-0.85
2018-12-14T16:20:33.314Z,-0.82
2018-12-14T16:23:00.927Z,-0.68
2018-12-14T16:25:28.676Z,-0.74
2018-12-14T16:27:56.355Z,-0.80
2018-12-14T16:30:24.083Z,-0.96
2018-12-14T16:32:51.639Z,-0.90
2018-12-14T16:35:19.202Z,-0.82
2018-12-14T16:37:46.868Z,-0.82
2018-12-14T16:40:14.433Z,-0.83
2018-12-14T16:42:41.981Z,-0.86
2018-12-14T16:45:09.651Z,-0.83
2018-12-14T16:47:37.219Z,-0.95
2018-12-14T16:50:05.477Z,-0.92
2018-12-14T16:52:33.614Z,-0.87
2018-12-14T16:55:01.313Z,-0.83
2018-12-14T16:57:29.222Z,-0.83
2018-12-14T16:59:56.772Z,-0.86
2018-12-14T17:02:51.512Z,-0.75
2018-12-14T17:05:50.321Z,-0.84
2018-12-14T17:08:31.149Z,-0.98
2018-12-14T17:11:01.181Z,-0.91
2018-12-14T17:13:28.862Z,-0.86
2018-12-14T17:15:56.441Z,-0.80
2018-12-14T17:18:24.015Z,-0.78
2018-12-14T17:20:51.560Z,-0.84
2018-12-14T17:23:21.164Z,-0.83
2018-12-14T17:25:51.354Z,-0.74
2018-12-14T17:28:19.407Z,-0.96
2018-12-14T17:30:46.955Z,-0.92
2018-12-14T17:33:14.504Z,-0.84
2018-12-14T17:35:42.044Z,-0.96
2018-12-14T17:38:09.696Z,-0.82
2018-12-14T17:40:37.247Z,-0.86
2018-12-14T17:43:05.101Z,-0.92
2018-12-14T17:45:32.655Z,-0.68
2018-12-14T17:48:00.204Z,-0.61
2018-12-14T17:50:27.752Z,-0.74
2018-12-14T17:52:55.299Z,-0.69
2018-12-14T17:55:22.838Z,-0.59
2018-12-14T17:57:51.005Z,-0.75
2018-12-14T18:00:19.335Z,-0.64
2018-12-14T18:02:46.885Z,-0.52
2018-12-14T18:05:14.532Z,-0.73
2018-12-14T18:07:42.088Z,-0.79
2018-12-14T18:10:09.649Z,-0.70
2018-12-14T18:12:37.191Z,-0.53
2018-12-14T18:15:05.659Z,-0.77
2018-12-14T18:17:33.210Z,-0.92
2018-12-14T18:20:06.013Z,-0.86
2018-12-14T18:22:33.620Z,-0.83
2018-12-14T18:25:01.567Z,-0.89
2018-12-14T18:27:29.226Z,-0.89
2018-12-14T18:29:57.382Z,-0.90
2018-12-14T18:32:24.920Z,-0.99
2018-12-14T18:34:52.466Z,-0.93
2018-12-14T18:37:20.116Z,-0.85
2018-12-14T18:39:47.676Z,-1.02
2018-12-14T18:42:17.791Z,-1.09
2018-12-14T18:44:45.714Z,-1.15
2018-12-14T18:47:13.252Z,-1.09
2018-12-14T18:49:40.812Z,-1.09
2018-12-14T18:52:08.365Z,-1.10
2018-12-14T18:54:35.908Z,-1.08
2018-12-14T18:57:03.452Z,-1.07
2018-12-14T18:59:31.419Z,-1.17
2018-12-14T19:01:58.966Z,-1.17
2018-12-14T19:04:26.523Z,-1.22
2018-12-14T19:06:55.989Z,-1.20
2018-12-14T19:09:25.449Z,-1.20
2018-12-14T19:11:54.063Z,-1.25
2018-12-14T19:14:21.880Z,-1.25
2018-12-14T19:16:49.439Z,-1.25
2018-12-14T19:19:16.985Z,-1.17
2018-12-14T19:21:44.553Z,-1.23
2018-12-14T19:24:12.112Z,-1.18
2018-12-14T19:26:39.687Z,-1.24
2018-12-14T19:29:07.914Z,-1.13
2018-12-14T19:31:35.461Z,-1.07
2018-12-14T19:34:03.035Z,-1.05
2018-12-14T19:36:30.909Z,-1.10
2018-12-14T19:38:58.953Z,-1.15
2018-12-14T19:41:26.512Z,-1.17
2018-12-14T19:43:54.173Z,-1.17
2018-12-14T19:46:21.929Z,-1.12
2018-12-14T19:48:50.608Z,-1.19
2018-12-14T19:51:19.352Z,-1.25
2018-12-14T19:53:47.538Z,-1.23
2018-12-14T19:56:15.072Z,-1.21
2018-12-14T19:58:42.616Z,-1.20
2018-12-14T20:01:10.160Z,-1.18
2018-12-14T20:03:37.717Z,-1.14
2018-12-14T20:06:05.377Z,-1.09
2018-12-14T20:08:33.000Z,-1.15
2018-12-14T20:11:00.548Z,-1.18
2018-12-14T20:13:28.090Z,-1.20
2018-12-14T20:15:57.661Z,-1.16
2018-12-14T20:18:25.256Z,-1.10
2018-12-14T20:20:52.808Z,-1.10
2018-12-14T20:23:20.351Z,-1.07
2018-12-14T20:25:48.348Z,-1.05
2018-12-14T20:28:16.113Z,-1.05
2018-12-14T20:30:45.068Z,-1.03
2018-12-14T20:33:14.005Z,-1.07
2018-12-14T20:35:41.711Z,-1.05
2018-12-14T20:38:09.369Z,-1.04
2018-12-14T20:40:36.911Z,-0.99
2018-12-14T20:43:04.985Z,-0.97
2018-12-14T20:45:32.564Z,-0.86
2018-12-14T20:48:00.108Z,-0.95
2018-12-14T20:50:27.668Z,-0.90
2018-12-14T20:52:55.216Z,-0.94
2018-12-14T20:55:22.768Z,-1.01
2018-12-14T20:57:50.321Z,-0.97
2018-12-14T21:00:17.867Z,-0.96
2018-12-14T21:02:45.817Z,-0.95
2018-12-14T21:05:15.100Z,-0.90
2018-12-14T21:07:47.004Z,-0.94
2018-12-14T21:10:14.792Z,-0.78
2018-12-14T21:12:42.341Z,-0.88
2018-12-14T21:15:09.891Z,-0.85
2018-12-14T21:17:37.446Z,-0.91
2018-12-14T21:20:07.067Z,-0.95
2018-12-14T21:22:35.381Z,-0.93
2018-12-14T21:25:04.306Z,-0.91
2018-12-14T21:27:32.623Z,-0.89
2018-12-14T21:30:00.170Z,-0.94
2018-12-14T21:32:28.174Z,-0.97
2018-12-14T21:34:56.508Z,-1.01
2018-12-14T21:37:25.932Z,-1.02
2018-12-14T21:39:54.283Z,-1.01
2018-12-14T21:42:21.837Z,-0.98
2018-12-14T21:44:49.379Z,-0.97
2018-12-14T21:47:17.435Z,-0.99
2018-12-14T21:49:44.981Z,-1.01
2018-12-14T21:52:12.533Z,-0.99
2018-12-14T21:54:40.087Z,-0.93
2018-12-14T21:57:07.632Z,-0.88
2018-12-14T21:59:35.197Z,-0.88
2018-12-14T22:02:02.741Z,-1.04
2018-12-14T22:04:31.150Z,-0.91
2018-12-14T22:06:58.968Z,-0.95
2018-12-14T22:09:26.688Z,-1.00
2018-12-14T22:11:54.375Z,-0.95
2018-12-14T22:14:21.985Z,-0.90
2018-12-14T22:16:49.564Z,-0.93
2018-12-14T22:19:17.111Z,-0.92
2018-12-14T22:21:44.791Z,-0.90
2018-12-14T22:24:12.346Z,-0.88
2018-12-14T22:26:40.225Z,-0.95
2018-12-14T22:29:07.926Z,-0.92
2018-12-14T22:31:35.713Z,-0.89
2018-12-14T22:34:04.129Z,-0.98
2018-12-14T22:36:31.896Z,-0.96
2018-12-14T22:38:59.508Z,-1.01
2018-12-14T22:41:27.216Z,-0.90
2018-12-14T22:43:54.769Z,-0.84
2018-12-14T22:46:22.470Z,-0.86
2018-12-14T22:48:50.230Z,-0.79
2018-12-14T22:51:18.601Z,-0.86
2018-12-14T22:53:46.448Z,-0.91
2018-12-14T22:56:13.999Z,-0.92
2018-12-14T22:58:42.185Z,-0.99
2018-12-14T23:01:09.804Z,-0.99
2018-12-14T23:03:37.446Z,-0.93
2018-12-14T23:06:04.993Z,-0.93
2018-12-14T23:08:33.162Z,-0.92
2018-12-14T23:11:00.802Z,-0.95
2018-12-14T23:13:29.584Z,-0.93
2018-12-14T23:15:57.991Z,-0.90
2018-12-14T23:18:25.570Z,-0.98
2018-12-14T23:20:53.142Z,-1.02
2018-12-14T23:23:20.704Z,-0.99
2018-12-14T23:25:49.634Z,-1.06
2018-12-14T23:28:17.218Z,-1.07
2018-12-14T23:30:45.641Z,-1.05
2018-12-14T23:33:13.445Z,-1.07
2018-12-14T23:35:41.018Z,-1.05
2018-12-14T23:38:08.736Z,-1.05
2018-12-14T23:40:36.502Z,-1.06
2018-12-14T23:43:05.639Z,-1.11
2018-12-14T23:45:35.011Z,-1.10
2018-12-14T23:48:04.122Z,-1.10
2018-12-14T23:50:32.489Z,-1.11
2018-12-14T23:53:00.032Z,-1.06
2018-12-14T23:55:27.591Z,-1.08
2018-12-14T23:57:55.149Z,-1.01
